createdAt,value
2023-04-30T00:03:08.850Z,1013.486
2023-04-30T00:23:07.820Z,1013.604
2023-04-30T00:43:07.703Z,1013.653
2023-04-30T01:03:09.241Z,1013.819
2023-04-30T01:23:07.227Z,1013.936
2023-04-30T01:43:08.245Z,1014.05
2023-04-30T02:03:09.289Z,1014.057
2023-04-30T02:23:08.088Z,1014.209
2023-04-30T02:43:07.937Z,1014.218
2023-04-30T03:03:09.264Z,1014.262
2023-04-30T03:23:07.184Z,1014.393
2023-04-30T03:43:07.932Z,1014.57
2023-04-30T04:03:08.240Z,1014.51
2023-04-30T04:23:08.295Z,1014.412
2023-04-30T04:43:07.389Z,1014.469
2023-04-30T05:03:08.719Z,1014.608
2023-04-30T05:23:07.511Z,1014.584
2023-04-30T05:43:07.318Z,1014.555
2023-04-30T06:03:08.406Z,1014.753
2023-04-30T06:23:07.262Z,1014.925
2023-04-30T06:43:08.030Z,1014.979
2023-04-30T07:03:09.308Z,1014.922
2023-04-30T07:23:08.109Z,1014.897
2023-04-30T07:43:07.956Z,1014.93
2023-04-30T08:03:09.293Z,1014.909
2023-04-30T08:23:07.272Z,1014.982
2023-04-30T08:43:07.113Z,1014.954
2023-04-30T09:03:09.626Z,1014.866
2023-04-30T09:23:07.432Z,1014.808
2023-04-30T09:43:07.396Z,1014.768
2023-04-30T10:03:08.383Z,1014.636
2023-04-30T10:23:07.443Z,1014.477
2023-04-30T10:43:07.479Z,1014.207
2023-04-30T11:03:08.653Z,1014.087
2023-04-30T11:23:07.911Z,1013.92
2023-04-30T11:43:08.149Z,1013.71
2023-04-30T12:03:09.338Z,1013.449
2023-04-30T12:23:07.319Z,1013.213
2023-04-30T12:43:07.432Z,1013.218
2023-04-30T13:03:08.974Z,1012.988
2023-04-30T13:23:07.841Z,1012.767
2023-04-30T13:43:07.912Z,1012.593
2023-04-30T14:03:09.448Z,1012.545
2023-04-30T14:23:07.346Z,1012.386
2023-04-30T14:43:07.357Z,1012.211
2023-04-30T15:03:09.043Z,1012.026
2023-04-30T15:23:07.195Z,1011.938
2023-04-30T15:43:07.296Z,1011.818
2023-04-30T16:03:08.754Z,1011.678
2023-04-30T16:23:07.629Z,1011.53
2023-04-30T16:43:07.654Z,1011.355
2023-04-30T17:03:09.010Z,1011.172
2023-04-30T17:23:08.116Z,1011.007
2023-04-30T17:43:08.081Z,1010.959
2023-04-30T18:03:09.204Z,1010.985
2023-04-30T18:23:10.527Z,1010.762
2023-04-30T18:43:07.600Z,1010.839
2023-04-30T19:03:08.892Z,1010.772
2023-04-30T19:23:07.823Z,1010.997
2023-04-30T19:43:07.829Z,1010.966
2023-04-30T20:03:09.244Z,1010.94
2023-04-30T20:23:07.178Z,1010.823
2023-04-30T20:43:07.282Z,1010.768
2023-04-30T21:03:08.893Z,1010.662
2023-04-30T21:23:07.994Z,1010.591
2023-04-30T21:43:07.971Z,1010.55
2023-04-30T22:03:08.474Z,1010.392
2023-04-30T22:23:07.237Z,1010.258
2023-04-30T22:43:08.185Z,1010.066
2023-04-30T23:03:09.165Z,1009.94
2023-04-30T23:23:07.964Z,1009.886
2023-04-30T23:43:07.741Z,1009.733
